Terminal Aerodrome Forecast
Issued by NWS Wilmington, OH

Current Version | Previous Version | Graphics & Text | Print | Product List | Glossary On
Versions: 1 2 3 4 5 6 7 8 9 10 11 12 13 14 15 16 17
000
FTUS41 KILN 281100
TAFCMH
TAF
KCMH 281128Z 2812/2912 20012KT P6SM OVC200
     FM281500 22014G24KT P6SM VCSH OVC050
     FM281700 23014G24KT 5SM -SHRA BR VCTS OVC025CB
     FM282100 26010KT P6SM SCT040 BKN100
     FM290100 26007KT P6SM BKN200=

USA.gov is the U.S. government's official web portal to all federal, state and local government web resources and services.